createdAt,value
2023-05-25T00:02:06.489Z,18.00
2023-05-25T00:04:35.492Z,17.95
2023-05-25T00:07:04.392Z,17.98
2023-05-25T00:09:32.466Z,17.98
2023-05-25T00:12:02.033Z,17.98
2023-05-25T00:14:31.257Z,17.98
2023-05-25T00:17:04.160Z,17.94
2023-05-25T00:19:34.255Z,17.91
2023-05-25T00:22:02.409Z,17.92
2023-05-25T00:24:30.844Z,17.89
2023-05-25T00:26:58.851Z,17.87
2023-05-25T00:29:28.190Z,17.86
2023-05-25T00:31:56.330Z,17.82
2023-05-25T00:34:24.496Z,17.82
2023-05-25T00:36:52.914Z,17.80
2023-05-25T00:39:21.715Z,17.49
2023-05-25T00:41:51.135Z,17.73
2023-05-25T00:44:22.066Z,17.70
2023-05-25T00:46:54.136Z,17.62
2023-05-25T00:49:23.668Z,17.63
2023-05-25T00:51:53.644Z,17.59
2023-05-25T00:54:22.082Z,17.44
2023-05-25T00:56:54.379Z,17.20
2023-05-25T00:59:40.960Z,16.94
2023-05-25T01:02:12.158Z,16.70
2023-05-25T01:04:45.622Z,16.61
2023-05-25T01:07:19.390Z,16.95
2023-05-25T01:09:48.982Z,17.02
2023-05-25T01:12:19.230Z,16.81
2023-05-25T01:14:48.910Z,17.06
2023-05-25T01:17:20.750Z,17.06
2023-05-25T01:20:01.593Z,17.07
2023-05-25T01:22:42.885Z,16.98
2023-05-25T01:25:15.569Z,17.06
2023-05-25T01:27:48.173Z,17.05
2023-05-25T01:30:18.235Z,16.94
2023-05-25T01:32:47.152Z,16.97
2023-05-25T01:35:16.727Z,17.02
2023-05-25T01:37:48.936Z,17.02
2023-05-25T01:40:17.192Z,17.00
2023-05-25T01:42:45.338Z,16.99
2023-05-25T01:45:14.858Z,16.97
2023-05-25T01:47:48.270Z,16.95
2023-05-25T01:50:23.738Z,16.88
2023-05-25T01:53:01.154Z,16.92
2023-05-25T01:55:33.778Z,16.61
2023-05-25T01:58:03.848Z,16.84
2023-05-25T02:00:33.172Z,16.87
2023-05-25T02:03:02.398Z,16.86
2023-05-25T02:05:30.422Z,16.83
2023-05-25T02:07:59.824Z,16.77
2023-05-25T02:10:27.697Z,16.80
2023-05-25T02:12:55.674Z,16.76
2023-05-25T02:15:23.774Z,16.68
2023-05-25T02:17:51.822Z,16.72
2023-05-25T02:20:19.869Z,16.36
2023-05-25T02:22:47.972Z,16.68
2023-05-25T02:25:17.394Z,16.66
2023-05-25T02:27:45.542Z,16.55
2023-05-25T02:30:14.187Z,16.60
2023-05-25T02:32:42.159Z,16.58
2023-05-25T02:35:11.099Z,16.56
2023-05-25T02:37:39.558Z,16.56
2023-05-25T02:40:09.450Z,16.53
2023-05-25T02:42:39.107Z,16.51
2023-05-25T02:45:10.676Z,16.50
2023-05-25T02:47:38.846Z,16.48
2023-05-25T02:50:07.738Z,16.40
2023-05-25T02:52:35.751Z,16.47
2023-05-25T02:55:03.679Z,16.42
2023-05-25T02:57:31.827Z,16.40
2023-05-25T03:00:01.616Z,15.91
2023-05-25T03:02:30.964Z,16.37
2023-05-25T03:05:00.908Z,16.01
2023-05-25T03:07:31.826Z,15.61
2023-05-25T03:09:59.957Z,16.23
2023-05-25T03:12:27.947Z,16.04
2023-05-25T03:14:55.925Z,16.32
2023-05-25T03:17:25.180Z,16.31
2023-05-25T03:19:53.432Z,16.34
2023-05-25T03:22:21.432Z,16.15
2023-05-25T03:24:50.456Z,16.30
2023-05-25T03:27:18.426Z,16.20
2023-05-25T03:29:46.447Z,16.23
2023-05-25T03:32:14.480Z,16.21
2023-05-25T03:34:45.085Z,16.22
2023-05-25T03:37:13.503Z,16.18
2023-05-25T03:39:41.449Z,16.13
2023-05-25T03:42:09.602Z,16.08
2023-05-25T03:44:39.310Z,16.02
2023-05-25T03:47:09.956Z,15.87
2023-05-25T03:49:37.820Z,15.98
2023-05-25T03:52:07.596Z,15.97
2023-05-25T03:54:35.631Z,15.79
2023-05-25T03:57:04.568Z,16.03
2023-05-25T03:59:32.467Z,15.99
2023-05-25T04:02:00.314Z,15.96
2023-05-25T04:04:30.088Z,15.93
2023-05-25T04:06:58.057Z,15.94
2023-05-25T04:09:27.368Z,15.91
2023-05-25T04:11:55.745Z,15.91
2023-05-25T04:14:23.622Z,15.91
2023-05-25T04:16:52.157Z,15.94
2023-05-25T04:19:20.452Z,15.93
2023-05-25T04:21:48.325Z,15.88
2023-05-25T04:24:16.199Z,15.86
2023-05-25T04:26:46.334Z,15.82
2023-05-25T04:29:14.764Z,15.82
2023-05-25T04:31:43.508Z,15.81
2023-05-25T04:34:11.687Z,15.86
2023-05-25T04:36:43.159Z,15.90
2023-05-25T04:39:11.159Z,15.97
2023-05-25T04:41:39.479Z,16.00
2023-05-25T04:44:10.367Z,16.01
2023-05-25T04:46:39.171Z,16.04
2023-05-25T04:49:08.717Z,16.07
2023-05-25T04:51:37.197Z,16.12
2023-05-25T04:54:06.493Z,15.98
2023-05-25T04:56:34.517Z,16.20
2023-05-25T04:59:02.450Z,16.17
2023-05-25T05:01:31.778Z,16.11
2023-05-25T05:03:59.961Z,16.03
2023-05-25T05:06:27.903Z,16.02
2023-05-25T05:08:55.992Z,16.03
2023-05-25T05:11:24.018Z,16.05
2023-05-25T05:13:51.972Z,16.11
2023-05-25T05:16:19.860Z,16.16
2023-05-25T05:18:49.377Z,16.12
2023-05-25T05:21:17.291Z,16.17
2023-05-25T05:23:45.538Z,16.20
2023-05-25T05:26:15.520Z,16.23
2023-05-25T05:28:43.586Z,16.16
2023-05-25T05:31:12.352Z,16.29
2023-05-25T05:33:40.733Z,16.10
2023-05-25T05:36:10.220Z,16.38
2023-05-25T05:38:40.378Z,16.43
2023-05-25T05:41:13.551Z,16.43
2023-05-25T05:43:42.928Z,16.51
2023-05-25T05:46:11.578Z,16.60
2023-05-25T05:48:39.641Z,16.53
2023-05-25T05:51:07.837Z,16.67
2023-05-25T05:53:37.241Z,16.84
2023-05-25T05:56:06.018Z,16.80
2023-05-25T05:58:33.916Z,17.00
2023-05-25T06:01:03.462Z,17.10
2023-05-25T06:03:31.491Z,17.25
2023-05-25T06:05:59.406Z,17.38
2023-05-25T06:08:27.821Z,17.39
2023-05-25T06:10:57.554Z,17.53
2023-05-25T06:13:25.571Z,17.59
2023-05-25T06:15:53.581Z,17.55
2023-05-25T06:18:21.567Z,17.68
2023-05-25T06:20:49.583Z,17.89
2023-05-25T06:23:18.931Z,17.99
2023-05-25T06:25:47.342Z,18.02
2023-05-25T06:28:16.741Z,17.16
2023-05-25T06:30:44.688Z,18.08
2023-05-25T06:33:14.144Z,18.11
2023-05-25T06:35:42.349Z,18.13
2023-05-25T06:38:12.596Z,18.14
2023-05-25T06:40:40.464Z,17.98
2023-05-25T06:43:08.339Z,18.14
2023-05-25T06:45:37.641Z,18.09
2023-05-25T06:48:05.798Z,18.01
2023-05-25T06:50:33.727Z,17.97
2023-05-25T06:53:01.673Z,18.00
2023-05-25T06:55:29.629Z,18.06
2023-05-25T06:57:57.950Z,18.13
2023-05-25T07:00:25.951Z,18.16
2023-05-25T07:02:55.222Z,18.15
2023-05-25T07:05:23.209Z,18.11
2023-05-25T07:07:51.348Z,18.08
2023-05-25T07:10:19.303Z,18.05
2023-05-25T07:12:50.172Z,18.06
2023-05-25T07:15:19.252Z,18.06
2023-05-25T07:17:54.566Z,18.08
2023-05-25T07:20:24.393Z,18.09
2023-05-25T07:22:53.509Z,18.18
2023-05-25T07:25:21.504Z,18.25
2023-05-25T07:27:50.381Z,18.33
2023-05-25T07:30:18.470Z,18.70
2023-05-25T07:32:46.541Z,18.98
2023-05-25T07:35:14.559Z,19.49
2023-05-25T07:37:43.927Z,19.92
2023-05-25T07:40:12.718Z,20.59
2023-05-25T07:42:40.777Z,20.98
2023-05-25T07:45:09.569Z,21.43
2023-05-25T07:47:37.493Z,21.82
2023-05-25T07:50:07.292Z,22.11
2023-05-25T07:52:35.179Z,22.34
2023-05-25T07:55:04.498Z,22.62
2023-05-25T07:57:32.595Z,22.78
2023-05-25T08:00:00.768Z,23.01
2023-05-25T08:02:28.953Z,23.29
2023-05-25T08:04:57.109Z,23.55
2023-05-25T08:07:25.619Z,23.70
2023-05-25T08:09:53.512Z,23.72
2023-05-25T08:12:42.412Z,23.75
2023-05-25T08:15:11.102Z,23.81
2023-05-25T08:17:39.123Z,23.83
2023-05-25T08:20:10.374Z,23.92
2023-05-25T08:22:38.734Z,23.99
2023-05-25T08:25:08.242Z,24.11
2023-05-25T08:27:37.621Z,24.26
2023-05-25T08:30:07.021Z,24.65
2023-05-25T08:32:35.071Z,24.89
2023-05-25T08:35:03.437Z,25.08
2023-05-25T08:37:32.907Z,25.06
2023-05-25T08:40:02.697Z,25.06
2023-05-25T08:42:31.052Z,24.73
2023-05-25T08:45:00.513Z,24.72
2023-05-25T08:47:32.551Z,25.01
2023-05-25T08:50:04.115Z,25.19
2023-05-25T08:52:35.380Z,25.45
2023-05-25T08:55:07.732Z,25.56
2023-05-25T08:57:43.580Z,25.53
2023-05-25T09:00:16.157Z,25.47
2023-05-25T09:02:51.852Z,25.65
2023-05-25T09:05:20.321Z,26.00
2023-05-25T09:07:49.700Z,26.01
2023-05-25T09:10:18.217Z,26.41
2023-05-25T09:12:46.212Z,26.44
2023-05-25T09:15:15.788Z,26.27
2023-05-25T09:17:43.736Z,26.05
2023-05-25T09:20:14.061Z,25.48
2023-05-25T09:22:42.467Z,25.73
2023-05-25T09:25:12.311Z,25.82
2023-05-25T09:27:40.236Z,26.04
2023-05-25T09:30:09.187Z,26.14
2023-05-25T09:32:39.417Z,25.86
2023-05-25T09:35:11.483Z,25.28
2023-05-25T09:37:40.035Z,25.10
2023-05-25T09:40:09.267Z,25.38
2023-05-25T09:42:38.023Z,25.29
2023-05-25T09:45:07.259Z,24.86
2023-05-25T09:47:39.002Z,24.77
2023-05-25T09:50:08.146Z,24.78
2023-05-25T09:52:37.326Z,24.70
2023-05-25T09:55:10.805Z,25.12
2023-05-25T09:57:38.879Z,25.65
2023-05-25T10:00:08.914Z,26.19
2023-05-25T10:02:38.317Z,26.59
2023-05-25T10:05:07.488Z,26.69
2023-05-25T10:07:36.029Z,27.06
2023-05-25T10:10:08.021Z,27.24
2023-05-25T10:12:36.825Z,27.52
2023-05-25T10:15:05.644Z,27.75
2023-05-25T10:17:36.783Z,27.39
2023-05-25T10:20:10.165Z,26.62
2023-05-25T10:22:45.289Z,26.43
2023-05-25T10:25:22.123Z,26.17
2023-05-25T10:27:59.491Z,26.26
2023-05-25T10:30:28.174Z,26.61
2023-05-25T10:32:56.882Z,26.58
2023-05-25T10:35:26.468Z,26.36
2023-05-25T10:37:55.828Z,27.02
2023-05-25T10:40:24.476Z,27.05
2023-05-25T10:42:52.966Z,27.02
2023-05-25T10:45:21.306Z,27.00
2023-05-25T10:47:51.129Z,27.25
2023-05-25T10:50:24.596Z,27.57
2023-05-25T10:53:01.527Z,27.53
2023-05-25T10:55:32.795Z,26.84
2023-05-25T10:58:11.137Z,27.50
2023-05-25T11:00:39.698Z,27.01
2023-05-25T11:03:08.551Z,27.59
2023-05-25T11:05:40.103Z,27.76
2023-05-25T11:08:12.577Z,27.71
2023-05-25T11:10:56.538Z,26.93
2023-05-25T11:13:33.831Z,26.52
2023-05-25T11:16:24.569Z,25.69
2023-05-25T11:18:54.908Z,25.08
2023-05-25T11:21:25.066Z,24.53
2023-05-25T11:23:59.337Z,24.51
2023-05-25T11:26:29.760Z,24.18
2023-05-25T11:28:59.927Z,24.33
2023-05-25T11:31:37.134Z,24.31
2023-05-25T11:34:09.418Z,24.01
2023-05-25T11:36:38.007Z,23.56
2023-05-25T11:39:20.435Z,23.19
2023-05-25T11:41:51.637Z,23.61
2023-05-25T11:44:28.475Z,23.24
2023-05-25T11:46:58.166Z,23.82
2023-05-25T11:49:26.552Z,23.64
2023-05-25T11:51:54.811Z,24.56
2023-05-25T11:54:25.763Z,24.88
2023-05-25T11:56:56.635Z,25.90
2023-05-25T11:59:27.237Z,26.30
2023-05-25T12:01:58.019Z,26.13
2023-05-25T12:04:26.117Z,25.90
2023-05-25T12:06:54.244Z,25.43
2023-05-25T12:09:24.521Z,24.85
2023-05-25T12:11:52.950Z,24.99
2023-05-25T12:14:20.924Z,24.70
2023-05-25T12:16:49.024Z,24.40
2023-05-25T12:19:17.817Z,24.42
2023-05-25T12:21:47.843Z,25.20
2023-05-25T12:24:15.983Z,25.75
2023-05-25T12:26:57.832Z,25.87
2023-05-25T12:29:26.587Z,25.55
2023-05-25T12:31:54.712Z,25.18
2023-05-25T12:34:22.722Z,24.88
2023-05-25T12:36:52.950Z,24.22
2023-05-25T12:39:35.056Z,24.23
2023-05-25T12:42:05.123Z,23.96
2023-05-25T12:44:37.141Z,23.50
2023-05-25T12:47:12.776Z,23.75
2023-05-25T12:49:42.343Z,23.65
2023-05-25T12:52:11.543Z,23.45
2023-05-25T12:54:45.326Z,23.88
2023-05-25T12:57:16.239Z,24.88
2023-05-25T12:59:45.077Z,25.81
2023-05-25T13:02:15.170Z,27.07
2023-05-25T13:04:44.701Z,27.94
2023-05-25T13:07:12.760Z,28.02
2023-05-25T13:09:40.762Z,28.19
2023-05-25T13:12:09.537Z,28.58
2023-05-25T13:14:38.769Z,27.74
2023-05-25T13:17:06.964Z,26.16
2023-05-25T13:19:34.851Z,26.06
2023-05-25T13:22:02.792Z,26.15
2023-05-25T13:24:30.893Z,25.81
2023-05-25T13:26:58.779Z,25.64
2023-05-25T13:29:26.762Z,25.19
2023-05-25T13:31:56.084Z,25.00
2023-05-25T13:34:24.115Z,25.09
2023-05-25T13:36:52.005Z,24.75
2023-05-25T13:39:19.975Z,23.99
2023-05-25T13:41:48.212Z,23.22
2023-05-25T13:44:17.690Z,24.04
2023-05-25T13:46:45.996Z,24.81
2023-05-25T13:49:16.469Z,25.46
2023-05-25T13:51:44.414Z,25.12
2023-05-25T13:54:13.888Z,25.84
2023-05-25T13:56:42.467Z,25.27
2023-05-25T13:59:10.734Z,24.41
2023-05-25T14:01:38.775Z,24.07
2023-05-25T14:04:06.756Z,23.78
2023-05-25T14:06:36.109Z,23.31
2023-05-25T14:09:04.140Z,23.61
2023-05-25T14:11:32.107Z,23.22
2023-05-25T14:14:00.038Z,22.98
2023-05-25T14:16:28.205Z,22.40
2023-05-25T14:18:56.714Z,23.21
2023-05-25T14:21:24.687Z,24.31
2023-05-25T14:23:54.200Z,25.22
2023-05-25T14:26:22.677Z,25.12
2023-05-25T14:28:50.830Z,26.12
2023-05-25T14:31:18.902Z,26.98
2023-05-25T14:33:46.982Z,26.74
2023-05-25T14:36:14.912Z,26.71
2023-05-25T14:38:42.878Z,27.79
2023-05-25T14:41:12.127Z,28.76
2023-05-25T14:43:40.025Z,29.34
2023-05-25T14:46:08.771Z,29.40
2023-05-25T14:48:36.708Z,28.32
2023-05-25T14:51:05.053Z,27.01
2023-05-25T14:53:32.946Z,25.55
2023-05-25T14:56:01.034Z,24.43
2023-05-25T14:58:32.327Z,23.36
2023-05-25T15:01:00.524Z,22.65
2023-05-25T15:03:28.501Z,22.33
2023-05-25T15:05:56.446Z,21.60
2023-05-25T15:08:24.503Z,21.02
2023-05-25T15:10:52.393Z,20.55
2023-05-25T15:13:22.611Z,20.25
2023-05-25T15:15:56.363Z,19.34
2023-05-25T15:18:24.591Z,19.96
2023-05-25T15:20:53.010Z,19.85
2023-05-25T15:23:23.291Z,19.46
2023-05-25T15:25:51.193Z,19.16
2023-05-25T15:28:19.326Z,19.08
2023-05-25T15:30:47.260Z,18.85
2023-05-25T15:33:16.810Z,18.52
2023-05-25T15:35:45.015Z,18.27
2023-05-25T15:38:13.038Z,17.95
2023-05-25T15:40:40.954Z,17.78
2023-05-25T15:43:08.886Z,18.09
2023-05-25T15:45:36.765Z,18.30
2023-05-25T15:48:09.336Z,18.53
2023-05-25T15:50:39.647Z,18.83
2023-05-25T15:53:07.625Z,18.92
2023-05-25T15:55:35.745Z,19.01
2023-05-25T15:58:03.853Z,18.84
2023-05-25T16:00:32.962Z,18.45
2023-05-25T16:03:01.124Z,18.39
2023-05-25T16:05:29.886Z,18.70
2023-05-25T16:07:59.148Z,19.00
2023-05-25T16:10:27.430Z,18.94
2023-05-25T16:12:55.499Z,18.95
2023-05-25T16:15:24.077Z,18.63
2023-05-25T16:17:51.928Z,19.19
2023-05-25T16:20:20.024Z,19.36
2023-05-25T16:22:47.935Z,19.55
2023-05-25T16:25:17.237Z,19.31
2023-05-25T16:27:45.453Z,19.14
2023-05-25T16:30:14.378Z,18.87
2023-05-25T16:32:42.368Z,18.54
2023-05-25T16:35:10.837Z,18.84
2023-05-25T16:37:38.755Z,18.66
2023-05-25T16:40:07.733Z,18.41
2023-05-25T16:42:36.986Z,18.35
2023-05-25T16:45:05.593Z,18.24
2023-05-25T16:47:33.522Z,18.49
2023-05-25T16:50:01.463Z,18.58
2023-05-25T16:52:29.327Z,18.52
2023-05-25T16:54:59.171Z,18.23
2023-05-25T16:57:27.497Z,17.67
2023-05-25T16:59:56.786Z,17.33
2023-05-25T17:02:24.731Z,16.80
2023-05-25T17:04:52.769Z,16.94
2023-05-25T17:07:20.636Z,16.84
2023-05-25T17:09:48.551Z,16.69
2023-05-25T17:12:16.897Z,16.54
2023-05-25T17:14:44.791Z,16.49
2023-05-25T17:17:14.616Z,16.38
2023-05-25T17:19:42.539Z,16.23
2023-05-25T17:22:10.733Z,16.17
2023-05-25T17:24:38.684Z,16.10
2023-05-25T17:27:07.093Z,16.04
2023-05-25T17:29:34.980Z,16.00
2023-05-25T17:32:02.918Z,15.78
2023-05-25T17:34:32.335Z,15.85
2023-05-25T17:37:00.241Z,15.75
2023-05-25T17:39:28.276Z,15.65
2023-05-25T17:41:56.196Z,15.51
2023-05-25T17:44:24.102Z,15.39
2023-05-25T17:46:52.048Z,15.39
2023-05-25T17:49:19.897Z,15.34
2023-05-25T17:51:49.163Z,15.31
2023-05-25T17:54:19.838Z,15.30
2023-05-25T17:56:47.769Z,15.23
2023-05-25T17:59:15.644Z,15.13
2023-05-25T18:01:43.544Z,15.25
2023-05-25T18:04:11.615Z,15.17
2023-05-25T18:06:39.626Z,15.14
2023-05-25T18:09:08.921Z,15.13
2023-05-25T18:11:37.093Z,15.09
2023-05-25T18:14:06.049Z,14.91
2023-05-25T18:16:39.372Z,14.83
2023-05-25T18:19:07.584Z,14.89
2023-05-25T18:21:36.219Z,14.49
2023-05-25T18:24:04.187Z,14.72
2023-05-25T18:26:33.444Z,14.63
2023-05-25T18:29:01.329Z,14.57
2023-05-25T18:31:30.756Z,14.46
2023-05-25T18:33:59.211Z,14.31
2023-05-25T18:36:27.448Z,13.95
2023-05-25T18:38:55.381Z,14.01
2023-05-25T18:41:24.505Z,14.15
2023-05-25T18:43:53.803Z,13.67
2023-05-25T18:46:22.143Z,13.96
2023-05-25T18:48:50.154Z,13.97
2023-05-25T18:51:18.017Z,13.93
2023-05-25T18:53:45.946Z,13.88
2023-05-25T18:56:14.129Z,13.81
2023-05-25T18:58:42.019Z,13.78
2023-05-25T19:01:11.375Z,12.78
2023-05-25T19:03:39.421Z,13.56
2023-05-25T19:06:07.599Z,13.49
2023-05-25T19:08:35.565Z,13.39
2023-05-25T19:11:03.466Z,13.31
2023-05-25T19:13:31.388Z,13.28
2023-05-25T19:16:01.350Z,13.23
2023-05-25T19:18:30.890Z,13.02
2023-05-25T19:20:59.209Z,13.06
2023-05-25T19:23:27.436Z,13.01
2023-05-25T19:25:55.487Z,13.05
2023-05-25T19:28:23.448Z,13.02
2023-05-25T19:30:51.571Z,12.86
2023-05-25T19:33:19.529Z,12.87
2023-05-25T19:35:48.746Z,12.78
2023-05-25T19:38:17.088Z,12.25
2023-05-25T19:40:45.115Z,12.74
2023-05-25T19:43:13.018Z,12.74
2023-05-25T19:45:41.322Z,12.55
2023-05-25T19:48:09.368Z,12.63
2023-05-25T19:50:37.329Z,12.54
2023-05-25T19:53:06.750Z,12.48
2023-05-25T19:55:36.795Z,12.51
2023-05-25T19:58:04.716Z,12.43
2023-05-25T20:00:32.672Z,12.38
2023-05-25T20:03:00.870Z,12.35
2023-05-25T20:05:28.934Z,12.34
2023-05-25T20:07:57.044Z,12.33
2023-05-25T20:10:26.320Z,12.26
2023-05-25T20:12:54.348Z,12.23
2023-05-25T20:15:22.250Z,12.23
2023-05-25T20:17:50.400Z,12.20
2023-05-25T20:20:18.426Z,12.15
2023-05-25T20:22:46.510Z,12.14
2023-05-25T20:25:14.464Z,12.14
2023-05-25T20:27:43.691Z,12.09
2023-05-25T20:30:13.844Z,12.03
2023-05-25T20:32:43.598Z,12.04
2023-05-25T20:35:11.634Z,12.00
2023-05-25T20:37:39.659Z,11.99
2023-05-25T20:40:08.474Z,11.95
2023-05-25T20:42:36.587Z,11.93
2023-05-25T20:45:07.221Z,11.89
2023-05-25T20:47:35.349Z,11.81
2023-05-25T20:50:03.361Z,11.80
2023-05-25T20:52:31.438Z,11.76
2023-05-25T20:54:59.389Z,11.71
2023-05-25T20:57:27.343Z,11.72
2023-05-25T20:59:59.845Z,11.64
2023-05-25T21:02:29.348Z,11.68
2023-05-25T21:04:57.259Z,11.64
2023-05-25T21:07:25.235Z,11.64
2023-05-25T21:09:53.182Z,11.63
2023-05-25T21:12:21.227Z,11.64
2023-05-25T21:14:49.210Z,11.63
2023-05-25T21:17:18.821Z,11.59
2023-05-25T21:19:49.008Z,11.48
2023-05-25T21:22:17.086Z,10.60
2023-05-25T21:24:45.326Z,11.53
2023-05-25T21:27:13.329Z,11.53
2023-05-25T21:29:41.310Z,11.51
2023-05-25T21:32:09.716Z,11.46
2023-05-25T21:34:37.595Z,11.04
2023-05-25T21:37:07.026Z,11.37
2023-05-25T21:39:34.975Z,11.34
2023-05-25T21:42:03.469Z,11.33
2023-05-25T21:44:31.459Z,11.30
2023-05-25T21:46:59.435Z,11.25
2023-05-25T21:49:27.497Z,11.26
2023-05-25T21:51:55.359Z,11.22
2023-05-25T21:54:25.147Z,11.21
2023-05-25T21:56:53.001Z,11.23
2023-05-25T21:59:21.006Z,11.23
2023-05-25T22:01:49.019Z,11.24
2023-05-25T22:04:17.184Z,11.22
2023-05-25T22:06:45.175Z,11.14
2023-05-25T22:09:13.330Z,11.20
2023-05-25T22:11:42.707Z,10.75
2023-05-25T22:14:10.730Z,11.20
2023-05-25T22:16:38.833Z,11.17
2023-05-25T22:19:06.808Z,11.19
2023-05-25T22:21:34.830Z,11.18
2023-05-25T22:24:02.925Z,11.16
2023-05-25T22:26:31.079Z,11.15
2023-05-25T22:29:00.548Z,11.15
2023-05-25T22:31:28.688Z,11.13
2023-05-25T22:33:56.650Z,10.98
2023-05-25T22:36:24.692Z,11.15
2023-05-25T22:38:52.626Z,11.00
2023-05-25T22:41:29.703Z,11.12
2023-05-25T22:43:57.676Z,11.11
2023-05-25T22:46:26.947Z,11.14
2023-05-25T22:48:54.986Z,10.82
2023-05-25T22:51:23.435Z,11.13
2023-05-25T22:53:51.337Z,11.14
2023-05-25T22:56:19.449Z,11.13
2023-05-25T22:58:47.416Z,11.12
2023-05-25T23:01:15.793Z,11.11
2023-05-25T23:03:45.291Z,10.64
2023-05-25T23:06:13.412Z,11.10
2023-05-25T23:08:41.470Z,11.09
2023-05-25T23:11:09.479Z,10.81
2023-05-25T23:13:37.498Z,11.12
2023-05-25T23:16:05.770Z,11.08
2023-05-25T23:18:33.760Z,11.13
2023-05-25T23:21:03.200Z,10.88
2023-05-25T23:23:31.053Z,11.16
2023-05-25T23:25:58.994Z,11.05
2023-05-25T23:28:27.063Z,11.19
2023-05-25T23:30:55.018Z,10.98
2023-05-25T23:33:23.016Z,11.14
2023-05-25T23:35:50.982Z,11.06
2023-05-25T23:38:20.265Z,11.16
2023-05-25T23:40:48.209Z,11.17
2023-05-25T23:43:16.402Z,11.18
2023-05-25T23:45:44.695Z,11.08
2023-05-25T23:48:13.000Z,11.04
2023-05-25T23:50:41.048Z,11.12
2023-05-25T23:53:08.916Z,11.11
2023-05-25T23:55:38.267Z,11.09
2023-05-25T23:58:06.333Z,10.71
